createdAt,value
2022-08-23T00:02:26.609Z,17.96
2022-08-23T00:05:07.995Z,18.01
2022-08-23T00:07:38.229Z,17.92
2022-08-23T00:10:05.367Z,17.95
2022-08-23T00:12:31.775Z,17.91
2022-08-23T00:14:58.412Z,17.88
2022-08-23T00:17:33.343Z,17.68
2022-08-23T00:20:04.715Z,17.62
2022-08-23T00:22:31.232Z,17.57
2022-08-23T00:24:57.658Z,17.70
2022-08-23T00:27:24.146Z,17.74
2022-08-23T00:29:52.071Z,17.90
2022-08-23T00:32:20.019Z,17.96
2022-08-23T00:34:46.631Z,18.09
2022-08-23T00:37:13.443Z,18.05
2022-08-23T00:39:40.678Z,18.15
2022-08-23T00:42:31.038Z,18.14
2022-08-23T00:45:17.718Z,18.18
2022-08-23T00:47:45.099Z,18.03
2022-08-23T00:50:19.296Z,17.99
2022-08-23T00:52:57.015Z,17.87
2022-08-23T00:55:24.698Z,17.75
2022-08-23T00:57:51.805Z,17.53
2022-08-23T01:00:18.893Z,17.34
2022-08-23T01:02:46.330Z,17.51
2022-08-23T01:05:13.696Z,17.60
2022-08-23T01:08:00.167Z,17.64
2022-08-23T01:10:32.259Z,17.69
2022-08-23T01:13:11.789Z,17.65
2022-08-23T01:15:44.137Z,17.40
2022-08-23T01:18:13.674Z,17.25
2022-08-23T01:21:02.930Z,17.39
2022-08-23T01:24:08.089Z,17.43
2022-08-23T01:26:35.308Z,17.42
2022-08-23T01:29:04.176Z,17.48
2022-08-23T01:31:30.586Z,17.43
2022-08-23T01:33:59.193Z,17.35
2022-08-23T01:36:29.221Z,17.53
2022-08-23T01:39:01.740Z,17.46
2022-08-23T01:41:28.145Z,17.36
2022-08-23T01:43:54.539Z,17.59
2022-08-23T01:46:21.990Z,17.60
2022-08-23T01:48:49.742Z,17.39
2022-08-23T01:51:16.921Z,17.38
2022-08-23T01:53:43.409Z,17.43
2022-08-23T01:56:12.716Z,17.53
2022-08-23T01:58:39.244Z,17.73
2022-08-23T02:01:05.790Z,17.59
2022-08-23T02:03:32.754Z,17.45
2022-08-23T02:05:59.676Z,17.52
2022-08-23T02:08:58.827Z,17.59
2022-08-23T02:11:25.888Z,17.38
2022-08-23T02:13:53.661Z,17.16
2022-08-23T02:16:27.781Z,17.28
2022-08-23T02:18:56.084Z,17.24
2022-08-23T02:21:22.660Z,17.14
2022-08-23T02:23:49.211Z,17.35
2022-08-23T02:26:15.612Z,17.55
2022-08-23T02:28:42.125Z,17.41
2022-08-23T02:31:08.605Z,17.31
2022-08-23T02:33:37.771Z,17.22
2022-08-23T02:36:04.328Z,16.99
2022-08-23T02:38:37.276Z,17.12
2022-08-23T02:41:03.689Z,17.41
2022-08-23T02:43:30.291Z,17.41
2022-08-23T02:45:59.559Z,17.33
2022-08-23T02:48:29.229Z,17.36
2022-08-23T02:50:58.675Z,17.36
2022-08-23T02:53:25.182Z,17.25
2022-08-23T02:55:52.173Z,17.26
2022-08-23T02:58:18.569Z,17.17
2022-08-23T03:00:48.789Z,16.90
2022-08-23T03:03:15.641Z,16.65
2022-08-23T03:05:45.919Z,16.47
2022-08-23T03:08:12.362Z,16.45
2022-08-23T03:10:42.324Z,16.61
2022-08-23T03:13:08.712Z,16.75
2022-08-23T03:15:35.116Z,16.85
2022-08-23T03:18:01.763Z,17.00
2022-08-23T03:20:28.672Z,17.07
2022-08-23T03:22:55.197Z,16.87
2022-08-23T03:25:21.755Z,16.92
2022-08-23T03:27:48.350Z,17.14
2022-08-23T03:30:19.172Z,17.26
2022-08-23T03:32:49.545Z,17.28
2022-08-23T03:35:16.319Z,17.31
2022-08-23T03:37:42.749Z,17.21
2022-08-23T03:40:09.621Z,17.23
2022-08-23T03:42:42.661Z,16.98
2022-08-23T03:45:09.246Z,16.76
2022-08-23T03:47:36.007Z,16.72
2022-08-23T03:50:02.504Z,16.62
2022-08-23T03:52:28.946Z,16.76
2022-08-23T03:54:55.356Z,16.77
2022-08-23T03:57:21.748Z,16.63
2022-08-23T03:59:48.873Z,16.44
2022-08-23T04:02:15.803Z,16.26
2022-08-23T04:04:42.357Z,16.14
2022-08-23T04:07:09.152Z,16.18
2022-08-23T04:09:35.574Z,16.22
2022-08-23T04:12:02.079Z,16.32
2022-08-23T04:14:28.510Z,16.35
2022-08-23T04:16:55.751Z,16.16
2022-08-23T04:19:23.319Z,15.93
2022-08-23T04:21:50.938Z,15.82
2022-08-23T04:24:20.453Z,16.18
2022-08-23T04:26:46.892Z,16.53
2022-08-23T04:29:23.009Z,16.77
2022-08-23T04:32:00.748Z,16.51
2022-08-23T04:34:28.646Z,16.36
2022-08-23T04:36:55.520Z,16.31
2022-08-23T04:39:21.967Z,16.45
2022-08-23T04:42:06.778Z,16.57
2022-08-23T04:44:36.026Z,16.84
2022-08-23T04:47:02.486Z,16.60
2022-08-23T04:49:29.036Z,16.65
2022-08-23T04:51:56.092Z,16.69
2022-08-23T04:54:26.097Z,16.77
2022-08-23T04:56:52.519Z,16.88
2022-08-23T04:59:19.638Z,16.88
2022-08-23T05:01:46.173Z,17.03
2022-08-23T05:04:12.581Z,17.06
2022-08-23T05:06:40.390Z,17.15
2022-08-23T05:09:10.097Z,16.94
2022-08-23T05:11:36.595Z,17.02
2022-08-23T05:14:03.391Z,16.95
2022-08-23T05:16:29.873Z,16.90
2022-08-23T05:18:56.417Z,16.81
2022-08-23T05:21:26.633Z,16.79
2022-08-23T05:23:54.725Z,16.97
2022-08-23T05:26:24.701Z,17.23
2022-08-23T05:28:51.204Z,17.69
2022-08-23T05:31:17.903Z,17.81
2022-08-23T05:33:45.175Z,17.91
2022-08-23T05:36:14.151Z,17.62
2022-08-23T05:38:41.166Z,17.50
2022-08-23T05:41:08.341Z,17.78
2022-08-23T05:43:35.562Z,18.06
2022-08-23T05:46:03.777Z,18.26
2022-08-23T05:48:31.853Z,18.29
2022-08-23T05:50:58.477Z,18.37
2022-08-23T05:53:24.910Z,18.32
2022-08-23T05:55:51.287Z,18.19
2022-08-23T05:58:17.786Z,18.32
2022-08-23T06:00:44.204Z,18.47
2022-08-23T06:03:10.680Z,18.49
2022-08-23T06:05:41.612Z,18.46
2022-08-23T06:08:08.177Z,18.48
2022-08-23T06:10:38.309Z,18.61
2022-08-23T06:13:06.937Z,18.53
2022-08-23T06:15:33.421Z,18.47
2022-08-23T06:18:00.088Z,18.57
2022-08-23T06:20:26.642Z,18.55
2022-08-23T06:22:53.126Z,18.57
2022-08-23T06:25:19.523Z,18.59
2022-08-23T06:27:46.011Z,18.59
2022-08-23T06:30:13.282Z,18.66
2022-08-23T06:32:43.075Z,18.86
2022-08-23T06:35:37.643Z,18.84
2022-08-23T06:37:56.764Z,18.87
2022-08-23T06:40:23.591Z,18.92
2022-08-23T06:42:50.138Z,18.94
2022-08-23T06:45:16.622Z,19.11
2022-08-23T06:47:43.308Z,19.15
2022-08-23T06:50:12.736Z,19.34
2022-08-23T06:52:45.356Z,19.44
2022-08-23T06:55:13.862Z,19.38
2022-08-23T06:57:40.737Z,19.34
2022-08-23T07:00:08.368Z,19.23
2022-08-23T07:02:35.347Z,19.32
2022-08-23T07:05:01.813Z,19.48
2022-08-23T07:07:37.586Z,19.58
2022-08-23T07:10:11.197Z,19.53
2022-08-23T07:12:38.504Z,19.67
2022-08-23T07:15:05.153Z,19.62
2022-08-23T07:17:31.560Z,19.66
2022-08-23T07:19:57.973Z,19.63
2022-08-23T07:22:24.738Z,19.74
2022-08-23T07:24:51.379Z,19.77
2022-08-23T07:27:17.877Z,19.72
2022-08-23T07:29:44.319Z,19.69
2022-08-23T07:32:10.889Z,19.77
2022-08-23T07:34:37.427Z,19.94
2022-08-23T07:37:04.438Z,20.00
2022-08-23T07:39:38.072Z,20.19
2022-08-23T07:42:23.365Z,20.21
2022-08-23T07:44:50.614Z,20.40
2022-08-23T07:47:18.154Z,20.60
2022-08-23T07:49:47.819Z,20.80
2022-08-23T07:52:17.573Z,21.00
2022-08-23T07:54:48.524Z,21.17
2022-08-23T07:57:15.979Z,21.47
2022-08-23T07:59:42.354Z,21.81
2022-08-23T08:02:11.685Z,21.99
2022-08-23T08:04:38.170Z,22.26
2022-08-23T08:07:19.244Z,22.52
2022-08-23T08:09:47.343Z,22.71
2022-08-23T08:12:13.847Z,22.88
2022-08-23T08:14:41.926Z,23.08
2022-08-23T08:17:08.355Z,23.19
2022-08-23T08:19:34.831Z,23.27
2022-08-23T08:22:01.297Z,23.41
2022-08-23T08:24:30.504Z,23.58
2022-08-23T08:26:58.243Z,23.70
2022-08-23T08:29:25.098Z,23.78
2022-08-23T08:31:54.279Z,24.04
2022-08-23T08:34:20.963Z,24.10
2022-08-23T08:36:49.508Z,24.06
2022-08-23T08:39:18.830Z,24.11
2022-08-23T08:41:45.327Z,24.41
2022-08-23T08:44:22.785Z,24.53
2022-08-23T08:46:52.808Z,24.52
2022-08-23T08:49:32.064Z,24.68
2022-08-23T08:52:13.952Z,24.87
2022-08-23T08:54:44.910Z,24.86
2022-08-23T08:57:16.968Z,24.99
2022-08-23T08:59:56.285Z,25.15
2022-08-23T09:02:32.268Z,25.29
2022-08-23T09:05:07.058Z,25.34
2022-08-23T09:07:44.778Z,25.42
2022-08-23T09:10:21.583Z,25.25
2022-08-23T09:12:53.414Z,25.40
2022-08-23T09:15:26.082Z,25.29
2022-08-23T09:17:52.553Z,25.54
2022-08-23T09:20:20.746Z,25.64
2022-08-23T09:22:48.832Z,25.84
2022-08-23T09:25:20.006Z,25.85
2022-08-23T09:27:46.511Z,26.01
2022-08-23T09:30:13.944Z,25.96
2022-08-23T09:32:43.113Z,25.71
2022-08-23T09:35:12.653Z,25.66
2022-08-23T09:37:49.998Z,25.79
2022-08-23T09:40:19.391Z,25.89
2022-08-23T09:42:47.378Z,26.09
2022-08-23T09:45:28.117Z,26.34
2022-08-23T09:47:55.446Z,26.20
2022-08-23T09:50:32.326Z,25.98
2022-08-23T09:53:04.465Z,26.13
2022-08-23T09:55:33.743Z,26.38
2022-08-23T09:58:01.958Z,26.32
2022-08-23T10:00:32.414Z,26.39
2022-08-23T10:03:22.461Z,26.52
2022-08-23T10:05:53.569Z,26.52
2022-08-23T10:08:32.829Z,26.40
2022-08-23T10:11:05.479Z,26.36
2022-08-23T10:13:34.573Z,26.42
2022-08-23T10:16:20.120Z,26.58
2022-08-23T10:18:46.566Z,26.78
2022-08-23T10:21:28.126Z,26.68
2022-08-23T10:24:00.532Z,26.62
2022-08-23T10:26:30.090Z,26.59
2022-08-23T10:29:30.199Z,26.85
2022-08-23T10:32:08.905Z,27.03
2022-08-23T10:34:50.848Z,27.07
2022-08-23T10:37:32.460Z,27.31
2022-08-23T10:40:03.504Z,27.28
2022-08-23T10:42:42.906Z,27.35
2022-08-23T10:45:12.018Z,27.22
2022-08-23T10:47:42.676Z,27.10
2022-08-23T10:50:17.960Z,27.20
2022-08-23T10:52:56.773Z,27.22
2022-08-23T10:55:36.871Z,27.41
2022-08-23T10:58:05.426Z,27.20
2022-08-23T11:00:38.206Z,27.23
2022-08-23T11:03:04.794Z,27.19
2022-08-23T11:05:33.346Z,27.22
2022-08-23T11:08:13.551Z,27.27
2022-08-23T11:10:39.926Z,27.19
2022-08-23T11:13:18.504Z,27.66
2022-08-23T11:15:47.173Z,27.71
2022-08-23T11:18:28.993Z,27.98
2022-08-23T11:21:04.247Z,27.85
2022-08-23T11:23:49.421Z,27.88
2022-08-23T11:26:28.296Z,27.99
2022-08-23T11:28:54.687Z,27.94
2022-08-23T11:31:21.324Z,27.68
2022-08-23T11:33:53.729Z,27.71
2022-08-23T11:36:22.078Z,27.82
2022-08-23T11:38:48.533Z,27.89
2022-08-23T11:41:14.884Z,27.87
2022-08-23T11:43:42.977Z,27.90
2022-08-23T11:46:27.502Z,27.80
2022-08-23T11:49:14.870Z,27.73
2022-08-23T11:52:00.167Z,27.78
2022-08-23T11:54:36.518Z,28.00
2022-08-23T11:57:12.027Z,27.93
2022-08-23T11:59:43.487Z,27.70
2022-08-23T12:02:32.250Z,27.73
2022-08-23T12:05:00.467Z,27.75
2022-08-23T12:07:45.383Z,27.95
2022-08-23T12:10:16.165Z,28.21
2022-08-23T12:12:46.999Z,28.32
2022-08-23T12:15:16.832Z,27.88
2022-08-23T12:17:43.479Z,27.82
2022-08-23T12:20:16.996Z,27.90
2022-08-23T12:23:02.650Z,27.92
2022-08-23T12:25:31.514Z,27.73
2022-08-23T12:28:17.285Z,28.02
2022-08-23T12:30:52.700Z,28.14
2022-08-23T12:33:42.175Z,27.93
2022-08-23T12:36:22.681Z,27.93
2022-08-23T12:38:52.113Z,27.96
2022-08-23T12:41:24.330Z,27.91
2022-08-23T12:44:08.323Z,28.01
2022-08-23T12:46:42.862Z,27.82
2022-08-23T12:49:12.582Z,28.03
2022-08-23T12:51:50.367Z,27.98
2022-08-23T12:54:18.824Z,28.18
2022-08-23T12:56:50.257Z,28.08
2022-08-23T12:59:37.587Z,27.90
2022-08-23T13:02:06.883Z,27.84
2022-08-23T13:04:35.064Z,27.96
2022-08-23T13:07:06.962Z,27.91
2022-08-23T13:09:35.495Z,28.00
2022-08-23T13:12:02.993Z,28.02
2022-08-23T13:14:32.194Z,28.04
2022-08-23T13:17:13.076Z,27.90
2022-08-23T13:19:39.638Z,27.78
2022-08-23T13:22:14.058Z,27.74
2022-08-23T13:24:45.526Z,27.65
2022-08-23T13:27:17.255Z,27.52
2022-08-23T13:29:50.978Z,27.47
2022-08-23T13:32:36.465Z,27.58
2022-08-23T13:35:23.800Z,27.59
2022-08-23T13:37:50.785Z,27.58
2022-08-23T13:40:29.159Z,27.62
2022-08-23T13:43:04.480Z,27.66
2022-08-23T13:45:32.656Z,27.70
2022-08-23T13:48:01.677Z,27.60
2022-08-23T13:50:28.098Z,27.55
2022-08-23T13:53:13.809Z,27.48
2022-08-23T13:55:45.839Z,27.45
2022-08-23T13:58:17.306Z,27.46
2022-08-23T14:00:55.100Z,27.36
2022-08-23T14:03:24.322Z,27.36
2022-08-23T14:05:51.173Z,27.33
2022-08-23T14:08:17.570Z,27.27
2022-08-23T14:10:46.430Z,27.20
2022-08-23T14:13:16.906Z,27.24
2022-08-23T14:16:58.615Z,27.34
2022-08-23T14:18:32.450Z,27.42
2022-08-23T14:20:59.347Z,27.33
2022-08-23T14:23:26.160Z,27.16
2022-08-23T14:25:55.313Z,27.09
2022-08-23T14:28:24.001Z,27.16
2022-08-23T14:30:51.470Z,27.16
2022-08-23T14:33:24.553Z,27.10
2022-08-23T14:35:52.442Z,27.18
2022-08-23T14:38:19.139Z,27.23
2022-08-23T14:40:51.166Z,27.19
2022-08-23T14:43:17.614Z,27.17
2022-08-23T14:45:44.118Z,27.11
2022-08-23T14:48:11.255Z,27.07
2022-08-23T14:50:42.086Z,27.05
2022-08-23T14:53:08.934Z,27.04
2022-08-23T14:55:36.380Z,27.03
2022-08-23T14:58:03.618Z,27.04
2022-08-23T15:00:31.131Z,27.06
2022-08-23T15:02:57.733Z,27.01
2022-08-23T15:05:26.060Z,26.92
2022-08-23T15:07:52.689Z,26.91
2022-08-23T15:13:20.951Z,26.86
2022-08-23T15:15:49.143Z,26.85
2022-08-23T15:18:19.326Z,26.77
2022-08-23T15:20:52.359Z,26.69
2022-08-23T15:23:19.543Z,26.69
2022-08-23T15:25:45.949Z,26.71
2022-08-23T15:28:19.432Z,26.72
2022-08-23T15:30:48.197Z,26.67
2022-08-23T15:33:14.929Z,26.59
2022-08-23T15:35:42.952Z,26.54
2022-08-23T15:38:11.543Z,26.54
2022-08-23T15:40:41.197Z,26.54
2022-08-23T15:43:07.893Z,26.55
2022-08-23T15:45:34.807Z,26.52
2022-08-23T15:48:01.852Z,26.50
2022-08-23T15:50:31.058Z,26.46
2022-08-23T15:52:58.103Z,26.45
2022-08-23T15:55:28.006Z,26.43
2022-08-23T15:57:54.642Z,26.44
2022-08-23T16:00:21.880Z,26.38
2022-08-23T16:03:18.953Z,26.39
2022-08-23T16:05:36.608Z,26.40
2022-08-23T16:08:04.466Z,26.33
2022-08-23T16:10:30.925Z,26.33
2022-08-23T16:12:57.333Z,26.30
2022-08-23T16:15:23.770Z,26.27
2022-08-23T16:17:50.187Z,26.20
2022-08-23T16:20:17.591Z,26.17
2022-08-23T16:22:44.141Z,26.13
2022-08-23T16:25:10.646Z,26.06
2022-08-23T16:27:37.175Z,26.08
2022-08-23T16:30:04.337Z,26.11
2022-08-23T16:32:30.825Z,26.09
2022-08-23T16:34:57.293Z,25.97
2022-08-23T16:37:23.735Z,25.84
2022-08-23T16:39:50.196Z,25.81
2022-08-23T16:42:16.658Z,25.82
2022-08-23T16:44:43.192Z,25.77
2022-08-23T16:47:10.866Z,25.73
2022-08-23T16:49:37.285Z,25.67
2022-08-23T16:52:04.443Z,25.66
2022-08-23T16:54:31.065Z,25.62
2022-08-23T16:56:59.916Z,25.51
2022-08-23T16:59:26.368Z,25.49
2022-08-23T17:01:52.847Z,25.53
2022-08-23T17:04:20.147Z,25.54
2022-08-23T17:06:46.766Z,25.51
2022-08-23T17:09:14.090Z,25.48
2022-08-23T17:11:40.994Z,25.46
2022-08-23T17:14:07.470Z,25.44
2022-08-23T17:16:34.113Z,25.35
2022-08-23T17:19:00.706Z,25.24
2022-08-23T17:21:30.732Z,25.27
2022-08-23T17:23:57.163Z,25.30
2022-08-23T17:26:24.396Z,25.25
2022-08-23T17:28:50.838Z,25.14
2022-08-23T17:31:20.182Z,25.05
2022-08-23T17:33:47.255Z,24.97
2022-08-23T17:36:22.504Z,24.83
2022-08-23T17:38:48.921Z,24.86
2022-08-23T17:41:17.448Z,24.88
2022-08-23T17:43:43.929Z,24.88
2022-08-23T17:46:10.370Z,24.75
2022-08-23T17:48:36.808Z,24.68
2022-08-23T17:51:03.261Z,24.62
2022-08-23T17:53:29.746Z,24.55
2022-08-23T17:55:57.054Z,24.45
2022-08-23T17:58:23.549Z,24.39
2022-08-23T18:00:52.511Z,24.31
2022-08-23T18:03:18.992Z,24.29
2022-08-23T18:05:46.778Z,24.17
2022-08-23T18:08:16.241Z,24.06
2022-08-23T18:10:42.695Z,23.96
2022-08-23T18:13:09.124Z,23.87
2022-08-23T18:15:35.707Z,23.76
2022-08-23T18:18:02.512Z,23.71
2022-08-23T18:20:29.050Z,23.64
2022-08-23T18:22:59.103Z,23.62
2022-08-23T18:25:28.888Z,23.52
2022-08-23T18:28:12.867Z,23.48
2022-08-23T18:30:45.585Z,23.38
2022-08-23T18:33:14.798Z,23.31
2022-08-23T18:35:41.641Z,23.23
2022-08-23T18:38:08.342Z,23.15
2022-08-23T18:40:45.247Z,23.15
2022-08-23T18:43:16.941Z,23.15
2022-08-23T18:45:44.151Z,23.12
2022-08-23T18:48:12.235Z,23.04
2022-08-23T18:50:39.391Z,22.86
2022-08-23T18:53:05.945Z,22.85
2022-08-23T18:55:32.453Z,22.77
2022-08-23T18:57:59.252Z,22.70
2022-08-23T19:00:25.724Z,22.71
2022-08-23T19:02:53.080Z,22.60
2022-08-23T19:05:19.560Z,22.53
2022-08-23T19:07:45.970Z,22.48
2022-08-23T19:10:18.363Z,22.44
2022-08-23T19:12:51.707Z,22.53
2022-08-23T19:15:21.581Z,22.52
2022-08-23T19:17:48.106Z,22.41
2022-08-23T19:20:15.172Z,22.29
2022-08-23T19:22:42.789Z,22.13
2022-08-23T19:25:09.519Z,21.99
2022-08-23T19:27:36.068Z,22.11
2022-08-23T19:30:03.006Z,22.04
2022-08-23T19:32:37.442Z,21.99
2022-08-23T19:35:05.954Z,21.96
2022-08-23T19:37:32.621Z,21.97
2022-08-23T19:40:00.173Z,21.72
2022-08-23T19:42:26.766Z,21.72
2022-08-23T19:44:53.766Z,21.83
2022-08-23T19:47:23.637Z,21.80
2022-08-23T19:49:58.901Z,21.68
2022-08-23T19:52:25.311Z,21.63
2022-08-23T19:54:51.780Z,21.67
2022-08-23T19:57:18.924Z,21.68
2022-08-23T19:59:45.500Z,21.50
2022-08-23T20:02:13.929Z,21.33
2022-08-23T20:04:43.140Z,21.49
2022-08-23T20:07:09.569Z,21.45
2022-08-23T20:09:36.060Z,21.44
2022-08-23T20:12:05.102Z,21.46
2022-08-23T20:14:33.262Z,21.59
2022-08-23T20:17:04.520Z,21.51
2022-08-23T20:19:34.577Z,21.42
2022-08-23T20:22:20.006Z,21.34
2022-08-23T20:24:51.906Z,21.05
2022-08-23T20:27:28.369Z,21.08
2022-08-23T20:29:58.963Z,21.34
2022-08-23T20:32:26.331Z,21.33
2022-08-23T20:34:52.762Z,21.35
2022-08-23T20:37:22.251Z,21.25
2022-08-23T20:39:52.369Z,21.11
2022-08-23T20:42:18.883Z,21.22
2022-08-23T20:44:45.416Z,21.11
2022-08-23T20:47:15.963Z,21.11
2022-08-23T20:49:45.970Z,21.00
2022-08-23T20:52:12.457Z,20.92
2022-08-23T20:54:42.406Z,20.94
2022-08-23T20:57:08.802Z,20.80
2022-08-23T20:59:35.323Z,20.73
2022-08-23T21:02:06.188Z,20.64
2022-08-23T21:04:32.753Z,20.48
2022-08-23T21:06:59.524Z,20.45
2022-08-23T21:09:35.856Z,20.39
2022-08-23T21:12:02.645Z,20.54
2022-08-23T21:14:29.132Z,20.51
2022-08-23T21:16:56.469Z,20.39
2022-08-23T21:19:22.916Z,20.20
2022-08-23T21:21:52.912Z,20.15
2022-08-23T21:24:19.810Z,20.18
2022-08-23T21:26:51.412Z,20.23
2022-08-23T21:29:17.851Z,20.20
2022-08-23T21:31:44.302Z,20.28
2022-08-23T21:34:11.809Z,20.51
2022-08-23T21:36:38.296Z,20.28
2022-08-23T21:39:05.129Z,20.07
2022-08-23T21:41:37.694Z,19.93
2022-08-23T21:44:09.043Z,19.83
2022-08-23T21:46:35.948Z,19.76
2022-08-23T21:49:02.432Z,19.68
2022-08-23T21:51:29.787Z,19.77
2022-08-23T21:53:59.337Z,20.09
2022-08-23T21:56:26.231Z,20.04
2022-08-23T21:58:53.447Z,20.11
2022-08-23T22:01:19.915Z,19.99
2022-08-23T22:03:46.506Z,19.91
2022-08-23T22:06:17.102Z,19.84
2022-08-23T22:08:46.953Z,19.92
2022-08-23T22:11:14.881Z,19.95
2022-08-23T22:13:41.631Z,19.95
2022-08-23T22:16:08.477Z,19.95
2022-08-23T22:18:35.421Z,19.88
2022-08-23T22:21:02.722Z,19.71
2022-08-23T22:23:30.140Z,19.82
2022-08-23T22:25:57.341Z,19.74
2022-08-23T22:28:27.800Z,19.80
2022-08-23T22:30:59.929Z,19.86
2022-08-23T22:33:26.696Z,19.85
2022-08-23T22:35:53.430Z,19.81
2022-08-23T22:38:22.621Z,19.73
2022-08-23T22:40:52.843Z,19.50
2022-08-23T22:43:19.936Z,19.36
2022-08-23T22:45:50.138Z,19.38
2022-08-23T22:48:16.760Z,19.34
2022-08-23T22:50:46.627Z,19.43
2022-08-23T22:53:13.417Z,19.46
2022-08-23T22:55:40.884Z,19.54
2022-08-23T22:58:07.683Z,19.43
2022-08-23T23:00:34.380Z,19.53
2022-08-23T23:03:01.050Z,19.46
2022-08-23T23:05:29.104Z,19.41
2022-08-23T23:08:14.124Z,19.32
2022-08-23T23:10:46.113Z,19.23
2022-08-23T23:13:12.542Z,19.25
2022-08-23T23:15:40.174Z,19.13
2022-08-23T23:18:06.599Z,19.17
2022-08-23T23:20:40.185Z,19.12
2022-08-23T23:23:07.713Z,19.25
2022-08-23T23:25:34.462Z,19.34
2022-08-23T23:28:02.543Z,19.34
2022-08-23T23:30:29.326Z,19.35
2022-08-23T23:32:59.381Z,19.29
2022-08-23T23:35:28.193Z,19.20
2022-08-23T23:37:55.412Z,19.22
2022-08-23T23:40:22.592Z,19.27
2022-08-23T23:42:49.157Z,19.25
2022-08-23T23:45:16.515Z,19.14
2022-08-23T23:47:46.227Z,18.63
2022-08-23T23:50:17.100Z,18.28
2022-08-23T23:52:44.033Z,18.29
2022-08-23T23:55:12.115Z,18.37
2022-08-23T23:57:38.999Z,18.60
